sensor_id;sensor_type;location;lat;lon;timestamp;pressure;altitude;pressure_sealevel;temperature;humidity
64200;BME280;50516;52.272;5.136;2022-08-01T00:00:33;101657.22;;;20.26;84.66
64200;BME280;50516;52.272;5.136;2022-08-01T00:02:59;101654.09;;;20.28;84.49
64200;BME280;50516;52.272;5.136;2022-08-01T00:05:24;101652.44;;;20.27;84.36
64200;BME280;50516;52.272;5.136;2022-08-01T00:07:50;101653.59;;;20.25;84.39
64200;BME280;50516;52.272;5.136;2022-08-01T00:10:16;101660.81;;;20.27;84.51
64200;BME280;50516;52.272;5.136;2022-08-01T00:12:42;101656.41;;;20.25;84.66
64200;BME280;50516;52.272;5.136;2022-08-01T00:15:10;101659.69;;;20.28;84.37
64200;BME280;50516;52.272;5.136;2022-08-01T00:17:36;101655.75;;;20.29;84.27
64200;BME280;50516;52.272;5.136;2022-08-01T00:20:03;101659.69;;;20.28;84.60
64200;BME280;50516;52.272;5.136;2022-08-01T00:22:30;101658.88;;;20.27;84.58
64200;BME280;50516;52.272;5.136;2022-08-01T00:24:56;101669.19;;;20.27;84.75
64200;BME280;50516;52.272;5.136;2022-08-01T00:27:22;101674.25;;;20.24;84.92
64200;BME280;50516;52.272;5.136;2022-08-01T00:29:47;101668.19;;;20.22;84.91
64200;BME280;50516;52.272;5.136;2022-08-01T00:32:12;101664.28;;;20.23;85.02
64200;BME280;50516;52.272;5.136;2022-08-01T00:34:38;101666.53;;;20.21;85.08
64200;BME280;50516;52.272;5.136;2022-08-01T00:37:03;101662.75;;;20.17;85.38
64200;BME280;50516;52.272;5.136;2022-08-01T00:39:29;101658.44;;;20.11;85.77
64200;BME280;50516;52.272;5.136;2022-08-01T00:41:54;101663.06;;;20.16;85.70
64200;BME280;50516;52.272;5.136;2022-08-01T00:44:20;101656.00;;;20.18;85.57
64200;BME280;50516;52.272;5.136;2022-08-01T00:46:45;101662.22;;;20.15;85.49
64200;BME280;50516;52.272;5.136;2022-08-01T00:49:11;101663.06;;;20.16;85.53
64200;BME280;50516;52.272;5.136;2022-08-01T00:51:36;101665.53;;;20.17;85.55
64200;BME280;50516;52.272;5.136;2022-08-01T00:54:02;101673.59;;;20.19;85.32
64200;BME280;50516;52.272;5.136;2022-08-01T00:56:28;101676.28;;;20.10;85.78
64200;BME280;50516;52.272;5.136;2022-08-01T00:58:54;101681.25;;;20.13;85.89
64200;BME280;50516;52.272;5.136;2022-08-01T01:01:21;101682.09;;;20.14;85.93
64200;BME280;50516;52.272;5.136;2022-08-01T01:03:48;101675.97;;;20.12;86.21
64200;BME280;50516;52.272;5.136;2022-08-01T01:09:14;101675.94;;;20.03;86.53
64200;BME280;50516;52.272;5.136;2022-08-01T01:14:29;101674.13;;;20.07;86.41
64200;BME280;50516;52.272;5.136;2022-08-01T01:16:58;101673.63;;;20.05;86.61
64200;BME280;50516;52.272;5.136;2022-08-01T01:19:28;101669.31;;;19.99;86.77
64200;BME280;50516;52.272;5.136;2022-08-01T01:22:07;101671.63;;;19.97;87.24
64200;BME280;50516;52.272;5.136;2022-08-01T01:24:51;101670.84;;;20.05;86.69
64200;BME280;50516;52.272;5.136;2022-08-01T01:27:46;101674.66;;;20.09;86.67
64200;BME280;50516;52.272;5.136;2022-08-01T01:30:13;101671.88;;;20.09;86.45
64200;BME280;50516;52.272;5.136;2022-08-01T01:32:48;101672.06;;;20.13;86.49
64200;BME280;50516;52.272;5.136;2022-08-01T01:35:23;101659.44;;;20.15;86.49
64200;BME280;50516;52.272;5.136;2022-08-01T01:37:53;101669.28;;;20.13;86.43
64200;BME280;50516;52.272;5.136;2022-08-01T01:40:21;101677.31;;;20.14;86.26
64200;BME280;50516;52.272;5.136;2022-08-01T01:42:48;101670.28;;;20.17;86.29
64200;BME280;50516;52.272;5.136;2022-08-01T01:45:15;101672.75;;;20.18;86.30
64200;BME280;50516;52.272;5.136;2022-08-01T01:47:42;101673.75;;;20.22;86.26
64200;BME280;50516;52.272;5.136;2022-08-01T01:50:11;101676.06;;;20.20;86.29
64200;BME280;50516;52.272;5.136;2022-08-01T01:52:38;101673.91;;;20.17;86.14
64200;BME280;50516;52.272;5.136;2022-08-01T01:55:07;101670.47;;;20.20;85.95
64200;BME280;50516;52.272;5.136;2022-08-01T01:57:36;101671.13;;;20.17;86.16
64200;BME280;50516;52.272;5.136;2022-08-01T02:00:03;101679.59;;;20.12;86.31
64200;BME280;50516;52.272;5.136;2022-08-01T02:02:31;101672.56;;;20.15;86.30
64200;BME280;50516;52.272;5.136;2022-08-01T02:04:58;101675.03;;;20.16;86.18
64200;BME280;50516;52.272;5.136;2022-08-01T02:07:25;101670.72;;;20.10;86.44
64200;BME280;50516;52.272;5.136;2022-08-01T02:09:53;101673.50;;;20.10;86.56
64200;BME280;50516;52.272;5.136;2022-08-01T02:12:20;101680.88;;;20.06;86.27
64200;BME280;50516;52.272;5.136;2022-08-01T02:14:50;101683.53;;;20.11;86.05
64200;BME280;50516;52.272;5.136;2022-08-01T02:17:18;101677.94;;;20.11;86.18
64200;BME280;50516;52.272;5.136;2022-08-01T02:19:45;101684.03;;;20.13;86.13
64200;BME280;50516;52.272;5.136;2022-08-01T02:25:19;101687.97;;;20.12;86.50
64200;BME280;50516;52.272;5.136;2022-08-01T02:30:24;101682.00;;;20.05;86.33
64200;BME280;50516;52.272;5.136;2022-08-01T02:32:55;101692.53;;;20.08;86.30
64200;BME280;50516;52.272;5.136;2022-08-01T02:35:27;101699.84;;;20.04;86.33
64200;BME280;50516;52.272;5.136;2022-08-01T02:37:54;101691.00;;;20.02;85.85
64200;BME280;50516;52.272;5.136;2022-08-01T02:40:20;101685.41;;;20.02;85.59
64200;BME280;50516;52.272;5.136;2022-08-01T02:42:50;101698.72;;;20.05;85.56
64200;BME280;50516;52.272;5.136;2022-08-01T02:45:24;101688.38;;;20.05;85.24
64200;BME280;50516;52.272;5.136;2022-08-01T02:47:51;101687.06;;;20.03;85.51
64200;BME280;50516;52.272;5.136;2022-08-01T02:50:20;101691.84;;;20.02;85.67
64200;BME280;50516;52.272;5.136;2022-08-01T02:52:48;101690.00;;;19.98;85.62
64200;BME280;50516;52.272;5.136;2022-08-01T02:55:17;101690.19;;;20.01;85.38
64200;BME280;50516;52.272;5.136;2022-08-01T02:57:44;101690.19;;;20.01;85.29
64200;BME280;50516;52.272;5.136;2022-08-01T03:00:13;101677.38;;;20.00;85.12
64200;BME280;50516;52.272;5.136;2022-08-01T03:02:39;101681.31;;;19.99;85.52
64200;BME280;50516;52.272;5.136;2022-08-01T03:05:06;101683.88;;;19.96;85.66
64200;BME280;50516;52.272;5.136;2022-08-01T03:07:34;101686.69;;;19.96;85.48
64200;BME280;50516;52.272;5.136;2022-08-01T03:10:00;101675.53;;;19.96;85.26
64200;BME280;50516;52.272;5.136;2022-08-01T03:12:29;101684.19;;;19.94;85.15
64200;BME280;50516;52.272;5.136;2022-08-01T03:14:58;101683.38;;;19.94;85.14
64200;BME280;50516;52.272;5.136;2022-08-01T03:17:27;101689.59;;;19.91;85.22
64200;BME280;50516;52.272;5.136;2022-08-01T03:19:54;101690.84;;;19.84;85.18
64200;BME280;50516;52.272;5.136;2022-08-01T03:22:23;101699.75;;;19.86;85.03
64200;BME280;50516;52.272;5.136;2022-08-01T03:24:51;101699.75;;;19.86;85.27
64200;BME280;50516;52.272;5.136;2022-08-01T03:27:21;101688.19;;;19.79;85.52
64200;BME280;50516;52.272;5.136;2022-08-01T03:29:49;101692.13;;;19.78;85.54
64200;BME280;50516;52.272;5.136;2022-08-01T03:32:17;101701.09;;;19.75;85.50
64200;BME280;50516;52.272;5.136;2022-08-01T03:34:43;101698.38;;;19.70;85.79
64200;BME280;50516;52.272;5.136;2022-08-01T03:40:16;101704.50;;;19.72;85.69
64200;BME280;50516;52.272;5.136;2022-08-01T03:42:37;101709.16;;;19.77;85.37
64200;BME280;50516;52.272;5.136;2022-08-01T03:45:07;101701.63;;;19.77;85.18
64200;BME280;50516;52.272;5.136;2022-08-01T03:47:36;101706.06;;;19.78;85.32
64200;BME280;50516;52.272;5.136;2022-08-01T03:50:05;101704.72;;;19.76;85.51
64200;BME280;50516;52.272;5.136;2022-08-01T03:52:32;101708.41;;;19.71;85.62
64200;BME280;50516;52.272;5.136;2022-08-01T03:55:03;101709.53;;;19.70;85.43
64200;BME280;50516;52.272;5.136;2022-08-01T03:57:30;101712.31;;;19.70;85.27
64200;BME280;50516;52.272;5.136;2022-08-01T04:00:00;101711.81;;;19.68;85.57
64200;BME280;50516;52.272;5.136;2022-08-01T04:02:29;101710.69;;;19.69;85.29
64200;BME280;50516;52.272;5.136;2022-08-01T04:04:55;101702.53;;;19.59;85.91
64200;BME280;50516;52.272;5.136;2022-08-01T04:07:28;101708.66;;;19.61;85.51
64200;BME280;50516;52.272;5.136;2022-08-01T04:09:54;101710.91;;;19.59;85.35
64200;BME280;50516;52.272;5.136;2022-08-01T04:12:20;101708.53;;;19.52;85.81
64200;BME280;50516;52.272;5.136;2022-08-01T04:14:45;101702.47;;;19.50;86.31
64200;BME280;50516;52.272;5.136;2022-08-01T04:17:11;101709.91;;;19.55;86.38
64200;BME280;50516;52.272;5.136;2022-08-01T04:19:37;101714.53;;;19.45;86.39
64200;BME280;50516;52.272;5.136;2022-08-01T04:22:03;101716.19;;;19.32;87.42
64200;BME280;50516;52.272;5.136;2022-08-01T04:24:31;101717.94;;;19.42;86.89
64200;BME280;50516;52.272;5.136;2022-08-01T04:26:58;101727.22;;;19.51;86.71
64200;BME280;50516;52.272;5.136;2022-08-01T04:29:26;101708.03;;;19.50;86.41
64200;BME280;50516;52.272;5.136;2022-08-01T04:31:55;101722.47;;;19.52;86.27
64200;BME280;50516;52.272;5.136;2022-08-01T04:34:24;101722.69;;;19.56;86.45
64200;BME280;50516;52.272;5.136;2022-08-01T04:36:52;101717.13;;;19.56;86.65
64200;BME280;50516;52.272;5.136;2022-08-01T04:39:20;101711.31;;;19.52;86.62
64200;BME280;50516;52.272;5.136;2022-08-01T04:41:46;101716.47;;;19.59;86.53
64200;BME280;50516;52.272;5.136;2022-08-01T04:44:14;101717.50;;;19.63;86.11
64200;BME280;50516;52.272;5.136;2022-08-01T04:46:40;101722.16;;;19.67;85.99
64200;BME280;50516;52.272;5.136;2022-08-01T04:49:10;101731.63;;;19.66;86.07
64200;BME280;50516;52.272;5.136;2022-08-01T04:51:37;101736.69;;;19.64;86.51
64200;BME280;50516;52.272;5.136;2022-08-01T04:54:14;101736.91;;;19.68;86.25
64200;BME280;50516;52.272;5.136;2022-08-01T04:56:40;101739.56;;;19.73;86.09
64200;BME280;50516;52.272;5.136;2022-08-01T04:59:06;101737.03;;;19.77;85.94
64200;BME280;50516;52.272;5.136;2022-08-01T05:01:50;101745.56;;;19.80;85.86
64200;BME280;50516;52.272;5.136;2022-08-01T05:04:15;101741.34;;;19.69;86.29
64200;BME280;50516;52.272;5.136;2022-08-01T05:06:41;101740.00;;;19.80;86.30
64200;BME280;50516;52.272;5.136;2022-08-01T05:09:06;101751.97;;;19.81;86.27
64200;BME280;50516;52.272;5.136;2022-08-01T05:11:32;101746.50;;;19.76;86.13
64200;BME280;50516;52.272;5.136;2022-08-01T05:13:57;101736.47;;;19.75;86.47
64200;BME280;50516;52.272;5.136;2022-08-01T05:16:22;101744.00;;;19.74;86.65
64200;BME280;50516;52.272;5.136;2022-08-01T05:18:48;101743.28;;;19.82;86.43
64200;BME280;50516;52.272;5.136;2022-08-01T05:21:13;101749.38;;;19.84;86.24
64200;BME280;50516;52.272;5.136;2022-08-01T05:23:39;101754.00;;;19.89;86.36
64200;BME280;50516;52.272;5.136;2022-08-01T05:26:04;101748.84;;;19.96;86.16
64200;BME280;50516;52.272;5.136;2022-08-01T05:28:30;101750.91;;;19.91;85.93
64200;BME280;50516;52.272;5.136;2022-08-01T05:30:55;101756.78;;;19.89;86.54
64200;BME280;50516;52.272;5.136;2022-08-01T05:33:22;101752.75;;;19.95;86.07
64200;BME280;50516;52.272;5.136;2022-08-01T05:35:47;101752.31;;;20.02;85.83
64200;BME280;50516;52.272;5.136;2022-08-01T05:38:13;101759.69;;;19.98;85.73
64200;BME280;50516;52.272;5.136;2022-08-01T05:40:38;101756.03;;;19.97;86.12
64200;BME280;50516;52.272;5.136;2022-08-01T05:43:03;101763.97;;;20.04;86.20
64200;BME280;50516;52.272;5.136;2022-08-01T05:45:29;101764.63;;;20.01;86.19
64200;BME280;50516;52.272;5.136;2022-08-01T05:47:54;101765.44;;;20.01;86.22
64200;BME280;50516;52.272;5.136;2022-08-01T05:50:19;101760.22;;;19.72;85.84
64200;BME280;50516;52.272;5.136;2022-08-01T05:52:45;101767.97;;;19.61;86.76
64200;BME280;50516;52.272;5.136;2022-08-01T05:55:11;101761.97;;;19.68;87.13
64200;BME280;50516;52.272;5.136;2022-08-01T05:57:36;101767.16;;;19.61;86.79
64200;BME280;50516;52.272;5.136;2022-08-01T06:00:02;101769.69;;;19.71;86.38
64200;BME280;50516;52.272;5.136;2022-08-01T06:02:27;101778.41;;;19.83;86.20
64200;BME280;50516;52.272;5.136;2022-08-01T06:04:53;101776.72;;;19.82;85.35
64200;BME280;50516;52.272;5.136;2022-08-01T06:07:18;101779.63;;;19.77;84.57
64200;BME280;50516;52.272;5.136;2022-08-01T06:09:44;101787.25;;;19.85;84.92
64200;BME280;50516;52.272;5.136;2022-08-01T06:12:12;101791.16;;;19.84;84.77
64200;BME280;50516;52.272;5.136;2022-08-01T06:14:37;101790.97;;;19.81;84.41
64200;BME280;50516;52.272;5.136;2022-08-01T06:17:03;101789.22;;;19.85;84.91
64200;BME280;50516;52.272;5.136;2022-08-01T06:19:28;101793.44;;;19.82;84.83
64200;BME280;50516;52.272;5.136;2022-08-01T06:21:53;101798.28;;;19.91;84.50
64200;BME280;50516;52.272;5.136;2022-08-01T06:24:19;101790.03;;;19.85;84.54
64200;BME280;50516;52.272;5.136;2022-08-01T06:26:44;101791.28;;;19.65;83.82
64200;BME280;50516;52.272;5.136;2022-08-01T06:29:10;101784.13;;;19.73;84.61
64200;BME280;50516;52.272;5.136;2022-08-01T06:31:35;101785.59;;;19.84;84.45
64200;BME280;50516;52.272;5.136;2022-08-01T06:34:04;101797.25;;;19.73;83.26
64200;BME280;50516;52.272;5.136;2022-08-01T06:36:29;101792.00;;;19.85;83.84
64200;BME280;50516;52.272;5.136;2022-08-01T06:38:54;101802.22;;;19.62;83.83
64200;BME280;50516;52.272;5.136;2022-08-01T06:41:20;101802.44;;;19.79;82.17
64200;BME280;50516;52.272;5.136;2022-08-01T06:43:45;101805.84;;;19.76;80.96
64200;BME280;50516;52.272;5.136;2022-08-01T06:46:10;101807.06;;;19.42;80.81
64200;BME280;50516;52.272;5.136;2022-08-01T06:48:36;101814.28;;;19.71;81.75
64200;BME280;50516;52.272;5.136;2022-08-01T06:51:04;101812.66;;;19.56;79.73
64200;BME280;50516;52.272;5.136;2022-08-01T06:53:36;101822.53;;;19.48;79.48
64200;BME280;50516;52.272;5.136;2022-08-01T06:56:02;101824.22;;;19.49;80.57
64200;BME280;50516;52.272;5.136;2022-08-01T06:58:28;101825.13;;;19.45;79.35
64200;BME280;50516;52.272;5.136;2022-08-01T07:00:53;101834.50;;;19.49;77.01
64200;BME280;50516;52.272;5.136;2022-08-01T07:03:19;101826.47;;;19.61;78.45
64200;BME280;50516;52.272;5.136;2022-08-01T07:05:44;101825.84;;;19.50;74.27
64200;BME280;50516;52.272;5.136;2022-08-01T07:08:10;101825.66;;;19.33;73.95
64200;BME280;50516;52.272;5.136;2022-08-01T07:10:35;101825.34;;;19.62;73.49
64200;BME280;50516;52.272;5.136;2022-08-01T07:13:03;101835.25;;;19.82;71.17
64200;BME280;50516;52.272;5.136;2022-08-01T07:15:28;101842.81;;;20.18;70.50
64200;BME280;50516;52.272;5.136;2022-08-01T07:17:54;101837.06;;;20.51;70.55
64200;BME280;50516;52.272;5.136;2022-08-01T07:20:19;101833.56;;;20.46;69.04
64200;BME280;50516;52.272;5.136;2022-08-01T07:22:45;101830.69;;;20.37;70.24
64200;BME280;50516;52.272;5.136;2022-08-01T07:25:10;101842.28;;;19.80;70.32
64200;BME280;50516;52.272;5.136;2022-08-01T07:27:36;101839.25;;;20.04;69.56
64200;BME280;50516;52.272;5.136;2022-08-01T07:30:04;101847.25;;;20.33;68.89
64200;BME280;50516;52.272;5.136;2022-08-01T07:32:29;101843.16;;;20.76;69.75
64200;BME280;50516;52.272;5.136;2022-08-01T07:34:55;101845.81;;;20.81;68.82
64200;BME280;50516;52.272;5.136;2022-08-01T07:37:20;101851.88;;;20.60;66.99
64200;BME280;50516;52.272;5.136;2022-08-01T07:39:46;101855.63;;;20.19;67.37
64200;BME280;50516;52.272;5.136;2022-08-01T07:42:11;101843.66;;;20.19;68.62
64200;BME280;50516;52.272;5.136;2022-08-01T07:44:37;101856.81;;;20.41;67.34
64200;BME280;50516;52.272;5.136;2022-08-01T07:47:03;101856.66;;;20.60;67.91
64200;BME280;50516;52.272;5.136;2022-08-01T07:49:29;101854.00;;;21.00;67.09
64200;BME280;50516;52.272;5.136;2022-08-01T07:51:54;101854.19;;;20.81;63.99
64200;BME280;50516;52.272;5.136;2022-08-01T07:54:20;101863.22;;;20.78;64.76
64200;BME280;50516;52.272;5.136;2022-08-01T07:56:45;101864.72;;;21.07;65.87
64200;BME280;50516;52.272;5.136;2022-08-01T07:59:11;101866.34;;;21.30;65.20
64200;BME280;50516;52.272;5.136;2022-08-01T08:01:36;101872.41;;;21.32;63.90
64200;BME280;50516;52.272;5.136;2022-08-01T08:04:02;101864.28;;;21.45;63.77
64200;BME280;50516;52.272;5.136;2022-08-01T08:06:27;101864.34;;;21.00;61.72
64200;BME280;50516;52.272;5.136;2022-08-01T08:08:53;101869.66;;;21.10;61.91
64200;BME280;50516;52.272;5.136;2022-08-01T08:11:19;101867.66;;;21.02;60.90
64200;BME280;50516;52.272;5.136;2022-08-01T08:13:44;101875.88;;;21.07;62.36
64200;BME280;50516;52.272;5.136;2022-08-01T08:16:10;101875.13;;;21.15;60.76
64200;BME280;50516;52.272;5.136;2022-08-01T08:18:35;101881.47;;;21.07;59.63
64200;BME280;50516;52.272;5.136;2022-08-01T08:21:01;101861.09;;;21.38;60.87
64200;BME280;50516;52.272;5.136;2022-08-01T08:23:26;101869.66;;;21.41;59.84
64200;BME280;50516;52.272;5.136;2022-08-01T08:26:11;101883.31;;;21.43;60.51
64200;BME280;50516;52.272;5.136;2022-08-01T08:28:36;101892.47;;;21.34;60.63
64200;BME280;50516;52.272;5.136;2022-08-01T08:31:01;101889.91;;;21.15;60.80
64200;BME280;50516;52.272;5.136;2022-08-01T08:33:27;101883.16;;;21.16;61.60
64200;BME280;50516;52.272;5.136;2022-08-01T08:35:52;101887.41;;;21.37;60.91
64200;BME280;50516;52.272;5.136;2022-08-01T08:38:19;101890.72;;;21.47;61.95
64200;BME280;50516;52.272;5.136;2022-08-01T08:40:45;101900.56;;;21.13;61.08
64200;BME280;50516;52.272;5.136;2022-08-01T08:43:11;101894.34;;;21.16;61.11
64200;BME280;50516;52.272;5.136;2022-08-01T08:45:37;101891.03;;;21.37;60.49
64200;BME280;50516;52.272;5.136;2022-08-01T08:48:05;101895.47;;;21.69;60.45
64200;BME280;50516;52.272;5.136;2022-08-01T08:50:31;101896.84;;;21.89;60.17
64200;BME280;50516;52.272;5.136;2022-08-01T08:52:58;101893.97;;;21.63;59.29
64200;BME280;50516;52.272;5.136;2022-08-01T08:55:26;101892.38;;;21.80;59.27
64200;BME280;50516;52.272;5.136;2022-08-01T08:57:53;101894.19;;;21.84;59.75
64200;BME280;50516;52.272;5.136;2022-08-01T09:00:20;101897.53;;;22.04;59.42
64200;BME280;50516;52.272;5.136;2022-08-01T09:02:47;101902.13;;;21.91;59.02
64200;BME280;50516;52.272;5.136;2022-08-01T09:05:14;101900.44;;;21.81;59.66
64200;BME280;50516;52.272;5.136;2022-08-01T09:07:40;101894.19;;;21.84;59.54
64200;BME280;50516;52.272;5.136;2022-08-01T09:10:07;101906.88;;;21.82;59.92
64200;BME280;50516;52.272;5.136;2022-08-01T09:12:32;101906.06;;;21.90;59.82
64200;BME280;50516;52.272;5.136;2022-08-01T09:14:58;101912.66;;;21.94;60.29
64200;BME280;50516;52.272;5.136;2022-08-01T09:17:23;101908.13;;;22.24;58.90
64200;BME280;50516;52.272;5.136;2022-08-01T09:19:54;101918.56;;;22.50;57.86
64200;BME280;50516;52.272;5.136;2022-08-01T09:22:21;101917.56;;;22.90;58.31
64200;BME280;50516;52.272;5.136;2022-08-01T09:25:03;101916.75;;;22.72;58.93
64200;BME280;50516;52.272;5.136;2022-08-01T09:27:30;101921.69;;;22.75;58.11
64200;BME280;50516;52.272;5.136;2022-08-01T09:30:10;101915.88;;;22.19;58.98
64200;BME280;50516;52.272;5.136;2022-08-01T09:32:36;101923.44;;;22.27;57.76
64200;BME280;50516;52.272;5.136;2022-08-01T09:37:49;101935.22;;;23.17;57.78
64200;BME280;50516;52.272;5.136;2022-08-01T09:40:14;101923.69;;;22.92;56.41
64200;BME280;50516;52.272;5.136;2022-08-01T09:42:40;101930.44;;;23.08;56.98
64200;BME280;50516;52.272;5.136;2022-08-01T09:45:06;101936.19;;;23.03;56.58
64200;BME280;50516;52.272;5.136;2022-08-01T09:47:38;101933.88;;;22.88;56.50
64200;BME280;50516;52.272;5.136;2022-08-01T09:50:05;101939.31;;;23.02;55.74
64200;BME280;50516;52.272;5.136;2022-08-01T09:52:30;101942.63;;;23.12;56.70
64200;BME280;50516;52.272;5.136;2022-08-01T09:55:01;101942.91;;;23.37;56.20
64200;BME280;50516;52.272;5.136;2022-08-01T09:57:28;101949.66;;;23.36;54.96
64200;BME280;50516;52.272;5.136;2022-08-01T09:59:56;101944.44;;;23.08;56.00
64200;BME280;50516;52.272;5.136;2022-08-01T10:02:36;101951.78;;;23.57;55.80
64200;BME280;50516;52.272;5.136;2022-08-01T10:05:04;101949.34;;;23.94;54.59
64200;BME280;50516;52.272;5.136;2022-08-01T10:07:30;101953.72;;;23.65;54.78
64200;BME280;50516;52.272;5.136;2022-08-01T10:10:09;101943.09;;;22.97;55.89
64200;BME280;50516;52.272;5.136;2022-08-01T10:12:34;101944.81;;;23.63;55.16
64200;BME280;50516;52.272;5.136;2022-08-01T10:15:00;101945.97;;;23.62;55.14
64200;BME280;50516;52.272;5.136;2022-08-01T10:17:26;101956.03;;;24.10;54.40
64200;BME280;50516;52.272;5.136;2022-08-01T10:19:52;101948.91;;;23.74;54.36
64200;BME280;50516;52.272;5.136;2022-08-01T10:22:23;101956.84;;;24.11;53.99
64200;BME280;50516;52.272;5.136;2022-08-01T10:24:55;101958.31;;;24.17;53.23
64200;BME280;50516;52.272;5.136;2022-08-01T10:27:21;101955.81;;;23.77;51.05
64200;BME280;50516;52.272;5.136;2022-08-01T10:29:59;101954.38;;;23.62;51.44
64200;BME280;50516;52.272;5.136;2022-08-01T10:32:34;101958.63;;;23.77;50.58
64200;BME280;50516;52.272;5.136;2022-08-01T10:35:04;101954.19;;;23.76;52.49
64200;BME280;50516;52.272;5.136;2022-08-01T10:37:30;101960.75;;;23.88;51.53
64200;BME280;50516;52.272;5.136;2022-08-01T10:39:56;101957.09;;;23.97;50.62
64200;BME280;50516;52.272;5.136;2022-08-01T10:42:22;101965.94;;;24.08;49.70
64200;BME280;50516;52.272;5.136;2022-08-01T10:44:48;101960.97;;;24.13;48.89
64200;BME280;50516;52.272;5.136;2022-08-01T10:47:32;101957.25;;;24.51;49.65
64200;BME280;50516;52.272;5.136;2022-08-01T10:50:15;101971.03;;;24.14;49.95
64200;BME280;50516;52.272;5.136;2022-08-01T10:53:21;101965.22;;;24.19;48.97
64200;BME280;50516;52.272;5.136;2022-08-01T10:55:49;101963.50;;;24.27;48.79
64200;BME280;50516;52.272;5.136;2022-08-01T10:58:31;101964.03;;;23.91;49.64
64200;BME280;50516;52.272;5.136;2022-08-01T11:03:40;101964.63;;;24.65;48.51
64200;BME280;50516;52.272;5.136;2022-08-01T11:06:06;101956.59;;;23.95;49.56
64200;BME280;50516;52.272;5.136;2022-08-01T11:08:41;101974.63;;;24.45;49.09
64200;BME280;50516;52.272;5.136;2022-08-01T11:11:07;101962.50;;;24.62;48.83
64200;BME280;50516;52.272;5.136;2022-08-01T11:16:28;101972.69;;;23.59;48.73
64200;BME280;50516;52.272;5.136;2022-08-01T11:18:54;101981.56;;;24.17;49.16
64200;BME280;50516;52.272;5.136;2022-08-01T11:21:19;101982.59;;;24.42;48.01
64200;BME280;50516;52.272;5.136;2022-08-01T11:23:50;101988.38;;;24.88;48.18
64200;BME280;50516;52.272;5.136;2022-08-01T11:26:19;101973.31;;;24.93;47.32
64200;BME280;50516;52.272;5.136;2022-08-01T11:29:12;101984.38;;;24.47;45.12
64200;BME280;50516;52.272;5.136;2022-08-01T11:31:38;101984.66;;;24.54;47.50
64200;BME280;50516;52.272;5.136;2022-08-01T11:34:04;101978.38;;;25.00;47.10
64200;BME280;50516;52.272;5.136;2022-08-01T11:36:30;101981.94;;;25.09;47.19
64200;BME280;50516;52.272;5.136;2022-08-01T11:41:32;101979.91;;;24.46;46.52
64200;BME280;50516;52.272;5.136;2022-08-01T11:47:06;101973.28;;;23.82;46.20
64200;BME280;50516;52.272;5.136;2022-08-01T11:57:22;101980.59;;;24.73;46.23
64200;BME280;50516;52.272;5.136;2022-08-01T11:59:51;101980.00;;;25.22;45.08
64200;BME280;50516;52.272;5.136;2022-08-01T12:05:09;101986.19;;;24.43;46.79
64200;BME280;50516;52.272;5.136;2022-08-01T12:07:34;101981.47;;;24.35;45.17
64200;BME280;50516;52.272;5.136;2022-08-01T12:10:27;101978.66;;;24.05;45.86
64200;BME280;50516;52.272;5.136;2022-08-01T12:12:59;101978.59;;;24.73;46.07
64200;BME280;50516;52.272;5.136;2022-08-01T12:15:30;101983.78;;;25.26;45.51
64200;BME280;50516;52.272;5.136;2022-08-01T12:18:03;101987.78;;;25.04;45.26
64200;BME280;50516;52.272;5.136;2022-08-01T12:20:35;101975.38;;;25.05;44.87
64200;BME280;50516;52.272;5.136;2022-08-01T12:23:03;101983.13;;;24.66;45.28
64200;BME280;50516;52.272;5.136;2022-08-01T12:25:33;101980.94;;;24.92;45.10
64200;BME280;50516;52.272;5.136;2022-08-01T12:28:03;101982.50;;;25.02;43.76
64200;BME280;50516;52.272;5.136;2022-08-01T12:30:30;101984.84;;;24.49;40.37
64200;BME280;50516;52.272;5.136;2022-08-01T12:32:57;101988.53;;;25.13;42.86
64200;BME280;50516;52.272;5.136;2022-08-01T12:35:24;101985.41;;;24.93;42.12
64200;BME280;50516;52.272;5.136;2022-08-01T12:37:53;101993.06;;;24.84;43.86
64200;BME280;50516;52.272;5.136;2022-08-01T12:40:22;101984.53;;;25.35;43.26
64200;BME280;50516;52.272;5.136;2022-08-01T12:42:52;101991.47;;;25.38;43.16
64200;BME280;50516;52.272;5.136;2022-08-01T12:45:21;101981.72;;;25.81;42.57
64200;BME280;50516;52.272;5.136;2022-08-01T12:47:49;101991.06;;;25.60;41.77
64200;BME280;50516;52.272;5.136;2022-08-01T12:50:19;101978.72;;;25.40;40.38
64200;BME280;50516;52.272;5.136;2022-08-01T12:52:45;101989.09;;;25.27;40.83
64200;BME280;50516;52.272;5.136;2022-08-01T12:57:38;101981.06;;;25.50;43.00
64200;BME280;50516;52.272;5.136;2022-08-01T13:00:06;101982.56;;;25.48;42.88
64200;BME280;50516;52.272;5.136;2022-08-01T13:02:33;101993.13;;;25.18;42.81
64200;BME280;50516;52.272;5.136;2022-08-01T13:04:59;101989.25;;;25.43;42.88
64200;BME280;50516;52.272;5.136;2022-08-01T13:07:56;101987.16;;;25.40;43.35
64200;BME280;50516;52.272;5.136;2022-08-01T13:10:29;101985.16;;;25.53;41.70
64200;BME280;50516;52.272;5.136;2022-08-01T13:12:57;101988.19;;;25.48;43.70
64200;BME280;50516;52.272;5.136;2022-08-01T13:15:27;101983.72;;;25.35;43.62
64200;BME280;50516;52.272;5.136;2022-08-01T13:17:55;101987.78;;;25.58;43.32
64200;BME280;50516;52.272;5.136;2022-08-01T13:20:30;101989.75;;;25.24;41.82
64200;BME280;50516;52.272;5.136;2022-08-01T13:23:10;101987.84;;;24.95;42.26
64200;BME280;50516;52.272;5.136;2022-08-01T13:25:46;101987.13;;;25.19;43.06
64200;BME280;50516;52.272;5.136;2022-08-01T13:28:16;101981.97;;;24.67;41.47
64200;BME280;50516;52.272;5.136;2022-08-01T13:31:00;101986.06;;;24.39;43.31
64200;BME280;50516;52.272;5.136;2022-08-01T13:33:41;101978.25;;;23.85;44.54
64200;BME280;50516;52.272;5.136;2022-08-01T13:36:07;101987.28;;;24.30;45.08